createdAt,value
2019-03-27T00:01:13.215Z,2.40
2019-03-27T00:03:40.269Z,2.10
2019-03-27T00:06:07.313Z,2.20
2019-03-27T00:08:34.359Z,2.17
2019-03-27T00:11:01.413Z,2.03
2019-03-27T00:13:28.456Z,2.10
2019-03-27T00:15:55.507Z,2.30
2019-03-27T00:18:22.560Z,2.40
2019-03-27T00:20:49.602Z,1.70
2019-03-27T00:23:16.652Z,1.93
2019-03-27T00:25:43.704Z,1.77
2019-03-27T00:28:10.748Z,1.97
2019-03-27T00:30:37.801Z,2.00
2019-03-27T00:33:04.851Z,1.80
2019-03-27T00:35:31.895Z,1.70
2019-03-27T00:37:58.941Z,1.73
2019-03-27T00:40:25.999Z,1.87
2019-03-27T00:42:53.552Z,1.60
2019-03-27T00:45:26.355Z,1.67
2019-03-27T00:47:47.648Z,1.80
2019-03-27T00:50:14.697Z,1.90
2019-03-27T00:52:41.755Z,1.73
2019-03-27T00:55:09.822Z,1.53
2019-03-27T00:57:36.866Z,2.10
2019-03-27T01:00:07.812Z,2.60
2019-03-27T01:02:36.499Z,2.00
2019-03-27T01:05:03.542Z,2.10
2019-03-27T01:07:30.590Z,1.60
2019-03-27T01:09:57.845Z,1.90
2019-03-27T01:12:25.059Z,1.77
2019-03-27T01:14:52.043Z,1.60
2019-03-27T01:17:19.095Z,1.63
2019-03-27T01:19:46.140Z,1.33
2019-03-27T01:22:13.190Z,1.50
2019-03-27T01:24:40.442Z,1.73
2019-03-27T01:27:07.492Z,1.53
2019-03-27T01:29:34.544Z,1.90
2019-03-27T01:32:01.485Z,1.60
2019-03-27T01:34:28.542Z,1.90
2019-03-27T01:36:55.582Z,1.80
2019-03-27T01:39:22.733Z,1.53
2019-03-27T01:41:49.784Z,1.80
2019-03-27T01:44:16.834Z,2.00
2019-03-27T01:46:43.881Z,1.93
2019-03-27T01:49:10.882Z,1.77
2019-03-27T01:51:37.886Z,1.67
2019-03-27T01:54:04.923Z,1.80
2019-03-27T01:56:31.979Z,1.70
2019-03-27T01:58:59.842Z,1.87
2019-03-27T02:01:27.093Z,1.90
2019-03-27T02:03:54.140Z,2.27
2019-03-27T02:06:21.198Z,1.93
2019-03-27T02:08:48.237Z,1.80
2019-03-27T02:11:15.285Z,1.70
2019-03-27T02:13:42.343Z,1.73
2019-03-27T02:16:09.384Z,1.43
2019-03-27T02:18:36.431Z,1.63
2019-03-27T02:21:03.486Z,1.50
2019-03-27T02:23:30.529Z,1.63
2019-03-27T02:25:57.578Z,1.80
2019-03-27T02:28:24.631Z,1.80
2019-03-27T02:30:51.680Z,1.90
2019-03-27T02:33:18.625Z,2.03
2019-03-27T02:35:45.673Z,1.70
2019-03-27T02:38:12.718Z,1.80
2019-03-27T02:40:39.664Z,1.80
2019-03-27T02:43:06.711Z,1.70
2019-03-27T02:45:33.765Z,1.60
2019-03-27T02:48:00.810Z,1.70
2019-03-27T02:50:27.863Z,1.87
2019-03-27T02:52:54.912Z,1.73
2019-03-27T02:55:21.904Z,1.90
2019-03-27T02:57:48.907Z,1.73
2019-03-27T03:00:15.950Z,1.70
2019-03-27T03:02:43.010Z,2.03
2019-03-27T03:05:21.348Z,1.50
2019-03-27T03:07:48.571Z,1.77
2019-03-27T03:10:17.753Z,1.70
2019-03-27T03:12:44.816Z,1.90
2019-03-27T03:15:11.983Z,2.13
2019-03-27T03:17:39.215Z,1.90
2019-03-27T03:20:06.266Z,1.90
2019-03-27T03:22:33.320Z,2.40
2019-03-27T03:25:00.976Z,1.77
2019-03-27T03:27:28.025Z,2.30
2019-03-27T03:29:55.083Z,2.00
2019-03-27T03:32:22.129Z,1.77
2019-03-27T03:34:49.175Z,1.47
2019-03-27T03:37:16.224Z,1.90
2019-03-27T03:39:43.267Z,1.83
2019-03-27T03:42:10.321Z,2.17
2019-03-27T03:44:37.369Z,1.27
2019-03-27T03:47:04.413Z,2.27
2019-03-27T03:49:31.463Z,2.10
2019-03-27T03:51:58.517Z,2.47
2019-03-27T03:54:25.560Z,1.80
2019-03-27T03:56:53.537Z,2.33
2019-03-27T03:59:20.612Z,2.13
2019-03-27T04:01:47.625Z,2.50
2019-03-27T04:04:14.674Z,2.40
2019-03-27T04:06:41.729Z,2.20
2019-03-27T04:09:08.796Z,2.30
2019-03-27T04:11:35.822Z,2.30
2019-03-27T04:14:02.885Z,2.43
2019-03-27T04:16:29.918Z,2.70
2019-03-27T04:18:56.966Z,2.97
2019-03-27T04:21:26.962Z,2.70
2019-03-27T04:23:51.172Z,2.57
2019-03-27T04:26:18.163Z,2.60
2019-03-27T04:28:45.166Z,3.47
2019-03-27T04:31:12.359Z,2.73
2019-03-27T04:33:39.361Z,3.07
2019-03-27T04:36:06.409Z,2.80
2019-03-27T04:38:35.922Z,2.30
2019-03-27T04:41:02.964Z,2.53
2019-03-27T04:43:30.015Z,3.10
2019-03-27T04:46:18.088Z,2.47
2019-03-27T04:48:45.205Z,2.30
2019-03-27T04:51:35.222Z,2.50
2019-03-27T04:54:17.064Z,3.20
2019-03-27T04:56:44.134Z,2.57
2019-03-27T04:59:11.195Z,3.57
2019-03-27T05:01:38.650Z,3.53
2019-03-27T05:04:05.661Z,3.63
2019-03-27T05:06:32.642Z,3.20
2019-03-27T05:09:00.196Z,3.03
2019-03-27T05:11:27.250Z,3.57
2019-03-27T05:13:54.293Z,3.10
2019-03-27T05:16:25.271Z,3.87
2019-03-27T05:18:52.284Z,3.30
2019-03-27T05:21:19.331Z,2.97
2019-03-27T05:23:46.387Z,3.17
2019-03-27T05:26:13.427Z,3.40
2019-03-27T05:28:48.443Z,3.33
2019-03-27T05:31:15.518Z,3.93
2019-03-27T05:33:42.562Z,4.63
2019-03-27T05:36:09.613Z,4.33
2019-03-27T05:38:36.663Z,2.67
2019-03-27T05:41:03.706Z,4.40
2019-03-27T05:43:30.754Z,8.33
2019-03-27T05:45:57.809Z,9.10
2019-03-27T05:48:24.852Z,3.87
2019-03-27T05:50:51.900Z,4.50
2019-03-27T05:53:18.847Z,3.50
2019-03-27T05:55:45.896Z,3.40
2019-03-27T05:58:12.948Z,3.50
2019-03-27T06:00:39.994Z,2.97
2019-03-27T06:03:07.040Z,4.17
2019-03-27T06:05:34.281Z,4.93
2019-03-27T06:08:01.285Z,4.03
2019-03-27T06:10:28.289Z,5.93
2019-03-27T06:12:55.336Z,4.90
2019-03-27T06:15:22.390Z,3.80
2019-03-27T06:17:49.434Z,4.40
2019-03-27T06:20:16.385Z,4.60
2019-03-27T06:22:43.456Z,3.40
2019-03-27T06:25:11.196Z,3.00
2019-03-27T06:27:38.256Z,4.10
2019-03-27T06:30:05.352Z,3.57
2019-03-27T06:32:32.339Z,4.33
2019-03-27T06:34:59.389Z,4.53
2019-03-27T06:37:26.444Z,4.77
2019-03-27T06:39:53.489Z,4.47
2019-03-27T06:42:22.898Z,3.77
2019-03-27T06:44:49.937Z,4.50
2019-03-27T06:47:17.297Z,4.40
2019-03-27T06:49:44.347Z,4.10
2019-03-27T06:52:11.391Z,4.50
2019-03-27T06:54:40.639Z,3.80
2019-03-27T06:57:07.645Z,3.63
2019-03-27T06:59:41.552Z,5.20
2019-03-27T07:02:08.804Z,4.20
2019-03-27T07:04:36.470Z,4.63
2019-03-27T07:07:08.223Z,3.57
2019-03-27T07:09:35.276Z,4.70
2019-03-27T07:12:02.278Z,3.50
2019-03-27T07:14:29.266Z,5.00
2019-03-27T07:16:56.314Z,4.73
2019-03-27T07:19:23.369Z,3.83
2019-03-27T07:21:50.412Z,3.97
2019-03-27T07:24:17.460Z,4.47
2019-03-27T07:26:44.515Z,3.83
2019-03-27T07:29:11.558Z,2.10
2019-03-27T07:31:38.557Z,3.03
2019-03-27T07:34:05.552Z,3.03
2019-03-27T07:36:32.604Z,3.20
2019-03-27T07:39:10.476Z,2.20
2019-03-27T07:41:28.443Z,2.23
2019-03-27T07:43:56.108Z,2.30
2019-03-27T07:46:23.155Z,3.47
2019-03-27T07:48:54.117Z,2.87
2019-03-27T07:51:18.066Z,2.43
2019-03-27T07:53:45.115Z,2.70
2019-03-27T07:56:12.266Z,0.90
2019-03-27T07:58:39.319Z,2.50
2019-03-27T08:01:06.363Z,2.90
2019-03-27T08:03:33.928Z,2.13
2019-03-27T08:06:00.971Z,2.40
2019-03-27T08:08:28.019Z,2.80
2019-03-27T08:10:56.093Z,2.50
2019-03-27T08:13:23.146Z,1.53
2019-03-27T08:15:50.190Z,2.73
2019-03-27T08:18:17.238Z,2.47
2019-03-27T08:20:44.293Z,1.73
2019-03-27T08:23:11.345Z,2.70
2019-03-27T08:25:38.286Z,2.70
2019-03-27T08:28:05.329Z,2.40
2019-03-27T08:30:32.389Z,1.77
2019-03-27T08:32:59.433Z,2.80
2019-03-27T08:35:26.478Z,2.60
2019-03-27T08:37:53.524Z,2.20
2019-03-27T08:40:20.582Z,2.40
2019-03-27T08:42:56.960Z,3.07
2019-03-27T08:45:23.989Z,2.10
2019-03-27T08:47:51.293Z,2.90
2019-03-27T08:50:18.803Z,2.37
2019-03-27T08:52:45.856Z,1.50
2019-03-27T08:55:13.823Z,2.67
2019-03-27T08:57:40.255Z,2.30
2019-03-27T09:00:09.351Z,2.87
2019-03-27T09:02:38.354Z,3.07
2019-03-27T09:05:05.394Z,2.80
2019-03-27T09:07:32.340Z,2.67
2019-03-27T09:09:59.389Z,2.40
2019-03-27T09:12:26.443Z,2.70
2019-03-27T09:14:53.486Z,2.67
2019-03-27T09:17:20.533Z,1.33
2019-03-27T09:19:47.588Z,3.00
2019-03-27T09:22:14.636Z,3.37
2019-03-27T09:24:41.680Z,2.40
2019-03-27T09:27:08.733Z,2.10
2019-03-27T09:29:36.194Z,2.73
2019-03-27T09:32:03.235Z,1.37
2019-03-27T09:34:30.306Z,2.93
2019-03-27T09:36:57.337Z,2.80
2019-03-27T09:39:24.381Z,0.83
2019-03-27T09:41:51.429Z,1.93
2019-03-27T09:44:18.419Z,1.70
2019-03-27T09:46:45.476Z,2.87
2019-03-27T09:49:12.574Z,2.37
2019-03-27T09:51:39.630Z,1.90
2019-03-27T09:54:06.671Z,2.10
2019-03-27T09:56:33.720Z,2.50
2019-03-27T09:59:00.778Z,2.00
2019-03-27T10:01:27.819Z,3.70
2019-03-27T10:03:54.866Z,2.77
2019-03-27T10:06:21.928Z,2.90
2019-03-27T10:08:48.966Z,1.47
2019-03-27T10:11:16.012Z,3.00
2019-03-27T10:13:44.700Z,2.47
2019-03-27T10:16:11.689Z,2.77
2019-03-27T10:18:38.637Z,2.73
2019-03-27T10:21:26.282Z,2.43
2019-03-27T10:23:53.270Z,2.00
2019-03-27T10:26:20.325Z,1.00
2019-03-27T10:28:47.368Z,3.03
2019-03-27T10:31:14.419Z,2.47
2019-03-27T10:33:41.412Z,1.17
2019-03-27T10:36:08.416Z,3.13
2019-03-27T10:38:35.465Z,3.63
2019-03-27T10:41:02.511Z,3.17
2019-03-27T10:43:29.971Z,3.20
2019-03-27T10:45:57.016Z,0.90
2019-03-27T10:48:24.071Z,3.43
2019-03-27T10:50:51.111Z,2.67
2019-03-27T10:53:18.161Z,2.10
2019-03-27T10:55:45.313Z,3.80
2019-03-27T10:58:12.366Z,3.50
2019-03-27T11:00:39.413Z,3.40
2019-03-27T11:03:06.457Z,2.60
2019-03-27T11:05:33.511Z,3.80
2019-03-27T11:08:00.555Z,2.77
2019-03-27T11:10:27.604Z,2.73
2019-03-27T11:12:54.658Z,1.10
2019-03-27T11:15:21.704Z,3.03
2019-03-27T11:17:48.749Z,2.50
2019-03-27T11:20:15.802Z,2.87
2019-03-27T11:22:42.837Z,2.07
2019-03-27T11:25:10.206Z,3.43
2019-03-27T11:27:37.252Z,3.60
2019-03-27T11:30:04.240Z,3.47
2019-03-27T11:32:32.065Z,1.60
2019-03-27T11:34:59.118Z,2.40
2019-03-27T11:37:27.083Z,1.87
2019-03-27T11:39:56.691Z,2.60
2019-03-27T11:42:23.952Z,3.50
2019-03-27T11:44:52.434Z,2.60
2019-03-27T11:47:21.212Z,3.90
2019-03-27T11:49:48.266Z,1.77
2019-03-27T11:52:15.415Z,1.70
2019-03-27T11:54:42.568Z,3.80
2019-03-27T11:57:10.485Z,4.20
2019-03-27T11:59:37.485Z,4.07
2019-03-27T12:02:05.459Z,3.33
2019-03-27T12:04:49.707Z,3.50
2019-03-27T12:07:16.858Z,4.47
2019-03-27T12:20:58.814Z,4.33
2019-03-27T12:26:12.184Z,2.60
2019-03-27T12:28:39.129Z,2.97
2019-03-27T12:31:06.143Z,3.20
2019-03-27T12:33:33.231Z,3.70
2019-03-27T12:36:00.276Z,3.70
2019-03-27T12:38:27.267Z,3.57
2019-03-27T12:40:56.220Z,3.70
2019-03-27T12:43:25.417Z,3.30
2019-03-27T12:45:52.565Z,2.97
2019-03-27T12:48:19.615Z,3.60
2019-03-27T12:50:46.676Z,2.50
2019-03-27T12:53:22.425Z,3.42
2019-03-27T12:55:50.385Z,2.07
2019-03-27T12:58:20.570Z,2.47
2019-03-27T13:00:59.621Z,2.70
2019-03-27T13:03:27.817Z,3.50
2019-03-27T13:08:39.633Z,2.57
2019-03-27T13:11:06.674Z,2.73
2019-03-27T13:13:33.731Z,3.37
2019-03-27T13:16:02.925Z,2.47
2019-03-27T13:18:29.971Z,2.60
2019-03-27T13:20:57.025Z,3.30
2019-03-27T13:23:24.021Z,2.40
2019-03-27T13:25:53.065Z,2.80
2019-03-27T13:31:05.540Z,2.80
2019-03-27T13:33:34.485Z,3.00
2019-03-27T13:36:01.639Z,2.90
2019-03-27T13:38:30.430Z,0.90
2019-03-27T13:40:57.477Z,3.50
2019-03-27T13:43:24.733Z,3.10
2019-03-27T13:48:39.203Z,3.33
2019-03-27T13:51:07.889Z,2.53
2019-03-27T13:53:35.857Z,2.80
2019-03-27T13:56:02.913Z,2.97
2019-03-27T13:58:29.901Z,3.40
2019-03-27T14:00:57.311Z,2.23
2019-03-27T14:03:24.366Z,2.40
2019-03-27T14:08:44.879Z,2.95
2019-03-27T14:11:11.931Z,3.47
2019-03-27T14:13:38.925Z,3.20
2019-03-27T14:16:06.023Z,1.80
2019-03-27T14:19:49.334Z,2.63
2019-03-27T14:33:30.420Z,2.53
2019-03-27T14:41:33.134Z,2.67
2019-03-27T14:44:00.697Z,2.25
2019-03-27T14:46:27.745Z,2.73
2019-03-27T14:48:54.799Z,2.40
2019-03-27T14:51:24.103Z,2.15
2019-03-27T15:04:24.769Z,1.50
2019-03-27T15:09:47.526Z,2.17
2019-03-27T15:12:23.129Z,1.93
2019-03-27T15:14:59.258Z,2.13
2019-03-27T15:28:28.304Z,1.90
2019-03-27T15:35:54.067Z,2.60
2019-03-27T15:38:21.571Z,2.37
2019-03-27T15:40:51.488Z,2.20
2019-03-27T15:43:18.542Z,1.90
2019-03-27T15:45:45.584Z,2.23
2019-03-27T15:48:12.632Z,2.00
2019-03-27T15:50:39.685Z,2.20
2019-03-27T15:53:06.729Z,2.00
2019-03-27T15:55:33.780Z,2.70
2019-03-27T15:58:01.253Z,2.10
2019-03-27T16:00:28.292Z,2.33
2019-03-27T16:02:55.333Z,1.90
2019-03-27T16:05:22.997Z,1.90
2019-03-27T16:07:50.050Z,2.00
2019-03-27T16:10:18.520Z,2.13
2019-03-27T16:12:44.193Z,2.77
2019-03-27T16:15:11.293Z,2.30
2019-03-27T16:17:54.613Z,2.40
2019-03-27T16:20:21.676Z,2.47
2019-03-27T16:22:50.960Z,2.30
2019-03-27T16:25:15.880Z,2.20
2019-03-27T16:27:42.927Z,2.40
2019-03-27T16:30:09.971Z,2.10
2019-03-27T16:32:38.802Z,2.40
2019-03-27T16:35:05.915Z,2.47
2019-03-27T16:37:32.958Z,2.20
2019-03-27T16:40:00.006Z,2.40
2019-03-27T16:42:26.995Z,1.97
2019-03-27T16:44:54.002Z,2.40
2019-03-27T16:47:20.990Z,2.63
2019-03-27T16:49:52.272Z,2.50
2019-03-27T16:52:34.193Z,1.87
2019-03-27T16:55:01.863Z,3.60
2019-03-27T16:57:30.032Z,2.30
2019-03-27T16:59:57.085Z,2.77
2019-03-27T17:02:24.128Z,2.30
2019-03-27T17:04:51.390Z,2.33
2019-03-27T17:07:18.432Z,2.40
2019-03-27T17:09:45.518Z,2.60
2019-03-27T17:12:13.758Z,2.17
2019-03-27T17:14:40.914Z,2.63
2019-03-27T17:17:08.066Z,2.27
2019-03-27T17:19:35.115Z,2.40
2019-03-27T17:22:02.157Z,2.40
2019-03-27T17:24:29.212Z,2.53
2019-03-27T17:26:56.459Z,2.20
2019-03-27T17:29:23.512Z,2.50
2019-03-27T17:31:50.760Z,2.63
2019-03-27T17:34:17.814Z,2.73
2019-03-27T17:36:47.218Z,2.20
2019-03-27T17:39:14.266Z,2.30
2019-03-27T17:41:41.309Z,2.50
2019-03-27T17:44:09.075Z,2.60
2019-03-27T17:46:36.948Z,2.27
2019-03-27T17:49:03.994Z,2.90
2019-03-27T17:51:31.041Z,2.50
2019-03-27T17:53:58.099Z,2.43
2019-03-27T17:56:25.137Z,2.80
2019-03-27T17:58:52.187Z,2.60
2019-03-27T18:01:19.241Z,2.40
2019-03-27T18:03:47.315Z,2.70
2019-03-27T18:06:17.260Z,2.40
2019-03-27T18:08:52.184Z,2.60
2019-03-27T18:11:30.981Z,2.60
2019-03-27T18:13:58.040Z,2.50
2019-03-27T18:16:25.078Z,2.57
2019-03-27T18:18:52.128Z,2.57
2019-03-27T18:21:21.233Z,2.77
2019-03-27T18:23:56.576Z,2.60
2019-03-27T18:26:43.373Z,2.30
2019-03-27T18:29:15.597Z,2.27
2019-03-27T18:31:42.596Z,2.60
2019-03-27T18:34:09.594Z,2.77
2019-03-27T18:36:36.590Z,2.80
2019-03-27T18:39:04.458Z,3.47
2019-03-27T18:41:36.325Z,3.47
2019-03-27T18:44:03.507Z,2.77
2019-03-27T18:46:31.340Z,2.53
2019-03-27T18:48:58.392Z,2.33
2019-03-27T18:51:25.435Z,2.47
2019-03-27T18:53:59.608Z,2.73
2019-03-27T18:56:20.047Z,2.50
2019-03-27T18:58:47.093Z,2.90
2019-03-27T19:01:14.606Z,2.97
2019-03-27T19:03:42.008Z,3.60
2019-03-27T19:06:08.956Z,2.97
2019-03-27T19:08:36.003Z,3.13
2019-03-27T19:11:03.155Z,3.13
2019-03-27T19:13:30.823Z,2.90
2019-03-27T19:15:57.872Z,3.03
2019-03-27T19:18:24.920Z,3.00
2019-03-27T19:20:51.972Z,2.60
2019-03-27T19:23:18.966Z,3.07
2019-03-27T19:28:31.957Z,3.10
2019-03-27T19:30:58.914Z,3.13
2019-03-27T19:33:25.947Z,2.77
2019-03-27T19:35:53.004Z,2.70
2019-03-27T19:38:20.111Z,2.70
2019-03-27T19:40:47.047Z,2.40
2019-03-27T19:43:14.239Z,2.63
2019-03-27T19:45:41.297Z,2.53
2019-03-27T19:48:08.545Z,2.50
2019-03-27T19:50:35.601Z,2.70
2019-03-27T19:53:02.643Z,2.10
2019-03-27T19:55:29.691Z,2.50
2019-03-27T19:57:56.744Z,2.60
2019-03-27T20:00:23.908Z,2.00
2019-03-27T20:02:51.049Z,2.70
2019-03-27T20:05:18.090Z,2.77
2019-03-27T20:07:45.142Z,2.43
2019-03-27T20:10:12.194Z,2.73
2019-03-27T20:12:39.440Z,2.33
2019-03-27T20:15:12.402Z,2.70
2019-03-27T20:17:33.745Z,2.60
2019-03-27T20:20:00.796Z,2.80
2019-03-27T20:22:27.947Z,3.10
2019-03-27T20:24:54.990Z,2.60
2019-03-27T20:27:22.037Z,2.73
2019-03-27T20:29:56.868Z,4.37
2019-03-27T20:32:23.925Z,3.27
2019-03-27T20:34:50.971Z,2.47
2019-03-27T20:37:19.658Z,4.03
2019-03-27T20:39:46.667Z,4.30
2019-03-27T20:42:18.792Z,3.43
2019-03-27T20:44:49.781Z,2.80
2019-03-27T20:47:17.116Z,5.73
2019-03-27T20:49:44.183Z,9.57
2019-03-27T20:52:11.268Z,3.67
2019-03-27T20:54:53.717Z,3.00
2019-03-27T20:57:09.150Z,2.80
2019-03-27T20:59:36.719Z,3.17
2019-03-27T21:02:05.806Z,8.10
2019-03-27T21:04:33.829Z,3.47
2019-03-27T21:07:01.547Z,3.80
2019-03-27T21:09:29.483Z,3.47
2019-03-27T21:11:56.562Z,4.80
2019-03-27T21:14:23.704Z,2.93
2019-03-27T21:16:50.862Z,2.97
2019-03-27T21:19:17.919Z,3.63
2019-03-27T21:21:47.217Z,2.80
2019-03-27T21:24:14.261Z,2.90
2019-03-27T21:26:41.308Z,5.53
2019-03-27T21:29:08.364Z,4.77
2019-03-27T21:31:35.383Z,3.47
2019-03-27T21:34:03.565Z,3.60
2019-03-27T21:36:30.631Z,3.40
2019-03-27T21:38:57.679Z,3.57
2019-03-27T21:41:24.732Z,3.30
2019-03-27T21:43:52.397Z,2.87
2019-03-27T21:46:20.628Z,3.20
2019-03-27T21:48:47.720Z,3.10
2019-03-27T21:51:14.766Z,2.90
2019-03-27T21:53:41.812Z,2.83
2019-03-27T21:56:08.866Z,2.90
2019-03-27T21:58:35.910Z,2.80
2019-03-27T22:01:03.062Z,2.70
2019-03-27T22:03:30.211Z,2.80
2019-03-27T22:05:57.264Z,2.93
2019-03-27T22:08:24.312Z,3.10
2019-03-27T22:10:51.361Z,3.33
2019-03-27T22:13:20.768Z,3.50
2019-03-27T22:15:47.880Z,3.03
2019-03-27T22:18:14.965Z,2.80
2019-03-27T22:20:43.816Z,2.47
2019-03-27T22:23:10.910Z,2.97
2019-03-27T22:25:38.672Z,2.80
2019-03-27T22:28:05.715Z,2.97
2019-03-27T22:30:32.762Z,2.60
2019-03-27T22:32:59.816Z,2.70
2019-03-27T22:35:27.681Z,3.33
2019-03-27T22:37:54.733Z,3.40
2019-03-27T22:40:21.776Z,2.70
2019-03-27T22:42:49.517Z,2.57
2019-03-27T22:45:16.971Z,2.73
2019-03-27T22:47:44.011Z,2.83
2019-03-27T22:50:11.717Z,3.30
2019-03-27T22:52:38.760Z,3.03
2019-03-27T22:55:05.808Z,3.60
2019-03-27T22:57:32.865Z,3.63
2019-03-27T22:59:59.908Z,3.00
2019-03-27T23:02:27.472Z,3.27
2019-03-27T23:04:54.515Z,3.00
2019-03-27T23:07:21.510Z,3.33
2019-03-27T23:09:48.510Z,2.60
2019-03-27T23:12:15.557Z,3.30
2019-03-27T23:14:42.612Z,3.17
2019-03-27T23:17:09.655Z,2.70
2019-03-27T23:19:36.703Z,3.40
2019-03-27T23:22:03.848Z,2.97
2019-03-27T23:24:30.914Z,3.07
2019-03-27T23:26:57.953Z,2.77
2019-03-27T23:29:26.843Z,2.60
2019-03-27T23:31:53.896Z,3.03
2019-03-27T23:34:20.940Z,3.10
2019-03-27T23:36:47.993Z,3.07
2019-03-27T23:39:15.042Z,2.90
2019-03-27T23:41:42.085Z,3.40
2019-03-27T23:44:09.135Z,3.13
2019-03-27T23:46:36.187Z,2.80
2019-03-27T23:49:03.233Z,2.90
2019-03-27T23:51:30.280Z,3.07
2019-03-27T23:53:57.335Z,3.10
2019-03-27T23:56:24.379Z,3.13
2019-03-27T23:58:51.426Z,3.20
